sensor_id;sensor_type;location;lat;lon;timestamp;temperature;humidity
13344;DHT22;6741;48.964;9.406;2022-11-30T00:01:15;5.60;99.90
13344;DHT22;6741;48.964;9.406;2022-11-30T00:03:44;5.60;99.90
13344;DHT22;6741;48.964;9.406;2022-11-30T00:06:13;5.60;99.90
13344;DHT22;6741;48.964;9.406;2022-11-30T00:08:40;5.60;99.90
13344;DHT22;6741;48.964;9.406;2022-11-30T00:11:09;5.60;99.90
13344;DHT22;6741;48.964;9.406;2022-11-30T00:13:36;5.50;99.90
13344;DHT22;6741;48.964;9.406;2022-11-30T00:16:04;5.60;99.90
13344;DHT22;6741;48.964;9.406;2022-11-30T00:18:31;5.60;99.90
13344;DHT22;6741;48.964;9.406;2022-11-30T00:21:00;5.60;99.90
13344;DHT22;6741;48.964;9.406;2022-11-30T00:23:31;5.60;99.90
13344;DHT22;6741;48.964;9.406;2022-11-30T00:26:00;5.60;99.90
13344;DHT22;6741;48.964;9.406;2022-11-30T00:28:27;5.50;99.90
13344;DHT22;6741;48.964;9.406;2022-11-30T00:30:57;5.50;99.90
13344;DHT22;6741;48.964;9.406;2022-11-30T00:33:24;5.60;99.90
13344;DHT22;6741;48.964;9.406;2022-11-30T00:35:55;5.60;99.90
13344;DHT22;6741;48.964;9.406;2022-11-30T00:38:24;5.60;99.90
13344;DHT22;6741;48.964;9.406;2022-11-30T00:40:51;5.60;99.90
13344;DHT22;6741;48.964;9.406;2022-11-30T00:43:18;5.60;99.90
13344;DHT22;6741;48.964;9.406;2022-11-30T00:45:45;5.60;99.90
13344;DHT22;6741;48.964;9.406;2022-11-30T00:48:13;5.60;99.90
13344;DHT22;6741;48.964;9.406;2022-11-30T00:50:41;5.60;99.90
13344;DHT22;6741;48.964;9.406;2022-11-30T00:53:09;5.60;99.90
13344;DHT22;6741;48.964;9.406;2022-11-30T00:55:37;5.50;99.90
13344;DHT22;6741;48.964;9.406;2022-11-30T00:58:04;5.60;99.90
13344;DHT22;6741;48.964;9.406;2022-11-30T01:00:32;5.60;99.90
13344;DHT22;6741;48.964;9.406;2022-11-30T01:02:59;5.60;99.90
13344;DHT22;6741;48.964;9.406;2022-11-30T01:05:27;5.60;99.90
13344;DHT22;6741;48.964;9.406;2022-11-30T01:07:54;5.60;99.90
13344;DHT22;6741;48.964;9.406;2022-11-30T01:10:21;5.50;99.90
13344;DHT22;6741;48.964;9.406;2022-11-30T01:12:49;5.50;99.90
13344;DHT22;6741;48.964;9.406;2022-11-30T01:15:16;5.50;99.90
13344;DHT22;6741;48.964;9.406;2022-11-30T01:17:43;5.50;99.90
13344;DHT22;6741;48.964;9.406;2022-11-30T01:20:11;5.50;99.90
13344;DHT22;6741;48.964;9.406;2022-11-30T01:22:38;5.50;99.90
13344;DHT22;6741;48.964;9.406;2022-11-30T01:25:05;5.60;99.90
13344;DHT22;6741;48.964;9.406;2022-11-30T01:27:32;5.60;99.90
13344;DHT22;6741;48.964;9.406;2022-11-30T01:30:00;5.60;99.90
13344;DHT22;6741;48.964;9.406;2022-11-30T01:32:27;5.50;99.90
13344;DHT22;6741;48.964;9.406;2022-11-30T01:34:54;5.50;99.90
13344;DHT22;6741;48.964;9.406;2022-11-30T01:37:21;5.50;99.90
13344;DHT22;6741;48.964;9.406;2022-11-30T01:39:48;5.50;99.90
13344;DHT22;6741;48.964;9.406;2022-11-30T01:42:17;5.50;99.90
13344;DHT22;6741;48.964;9.406;2022-11-30T01:44:53;5.50;99.90
13344;DHT22;6741;48.964;9.406;2022-11-30T01:47:25;5.50;99.90
13344;DHT22;6741;48.964;9.406;2022-11-30T01:49:59;5.50;99.90
13344;DHT22;6741;48.964;9.406;2022-11-30T01:52:30;5.60;99.90
13344;DHT22;6741;48.964;9.406;2022-11-30T01:55:05;5.50;99.90
13344;DHT22;6741;48.964;9.406;2022-11-30T01:57:35;5.60;99.90
13344;DHT22;6741;48.964;9.406;2022-11-30T02:00:06;5.50;99.90
13344;DHT22;6741;48.964;9.406;2022-11-30T02:02:41;5.50;99.90
13344;DHT22;6741;48.964;9.406;2022-11-30T02:05:09;5.50;99.90
13344;DHT22;6741;48.964;9.406;2022-11-30T02:07:37;5.50;99.90
13344;DHT22;6741;48.964;9.406;2022-11-30T02:10:05;5.50;99.90
13344;DHT22;6741;48.964;9.406;2022-11-30T02:12:38;5.50;99.90
13344;DHT22;6741;48.964;9.406;2022-11-30T02:15:12;5.40;99.90
13344;DHT22;6741;48.964;9.406;2022-11-30T02:17:49;5.40;99.90
13344;DHT22;6741;48.964;9.406;2022-11-30T02:20:34;5.40;99.90
13344;DHT22;6741;48.964;9.406;2022-11-30T02:26:07;5.40;99.90
13344;DHT22;6741;48.964;9.406;2022-11-30T02:28:58;5.40;99.90
13344;DHT22;6741;48.964;9.406;2022-11-30T02:31:30;5.40;99.90
13344;DHT22;6741;48.964;9.406;2022-11-30T02:34:00;5.40;99.90
13344;DHT22;6741;48.964;9.406;2022-11-30T02:36:28;5.40;99.90
13344;DHT22;6741;48.964;9.406;2022-11-30T02:38:57;5.40;99.90
13344;DHT22;6741;48.964;9.406;2022-11-30T02:41:24;5.40;99.90
13344;DHT22;6741;48.964;9.406;2022-11-30T02:43:51;5.40;99.90
13344;DHT22;6741;48.964;9.406;2022-11-30T02:46:22;5.50;99.90
13344;DHT22;6741;48.964;9.406;2022-11-30T02:48:57;5.50;99.90
13344;DHT22;6741;48.964;9.406;2022-11-30T02:51:29;5.40;99.90
13344;DHT22;6741;48.964;9.406;2022-11-30T02:53:57;5.40;99.90
13344;DHT22;6741;48.964;9.406;2022-11-30T02:56:25;5.40;99.90
13344;DHT22;6741;48.964;9.406;2022-11-30T02:58:52;5.40;99.90
13344;DHT22;6741;48.964;9.406;2022-11-30T03:01:20;5.40;99.90
13344;DHT22;6741;48.964;9.406;2022-11-30T03:03:47;5.40;99.90
13344;DHT22;6741;48.964;9.406;2022-11-30T03:06:14;5.30;99.90
13344;DHT22;6741;48.964;9.406;2022-11-30T03:08:41;5.30;99.90
13344;DHT22;6741;48.964;9.406;2022-11-30T03:11:08;5.30;99.90
13344;DHT22;6741;48.964;9.406;2022-11-30T03:13:35;5.30;99.90
13344;DHT22;6741;48.964;9.406;2022-11-30T03:16:05;5.30;99.90
13344;DHT22;6741;48.964;9.406;2022-11-30T03:18:34;5.30;99.90
13344;DHT22;6741;48.964;9.406;2022-11-30T03:21:04;5.30;99.90
13344;DHT22;6741;48.964;9.406;2022-11-30T03:23:32;5.30;99.90
13344;DHT22;6741;48.964;9.406;2022-11-30T03:26:00;5.30;99.90
13344;DHT22;6741;48.964;9.406;2022-11-30T03:28:27;5.30;99.90
13344;DHT22;6741;48.964;9.406;2022-11-30T03:30:54;5.30;99.90
13344;DHT22;6741;48.964;9.406;2022-11-30T03:33:22;5.30;99.90
13344;DHT22;6741;48.964;9.406;2022-11-30T03:35:57;5.30;99.90
13344;DHT22;6741;48.964;9.406;2022-11-30T03:38:24;5.30;99.90
13344;DHT22;6741;48.964;9.406;2022-11-30T03:40:58;5.30;99.90
13344;DHT22;6741;48.964;9.406;2022-11-30T03:43:25;5.30;99.90
13344;DHT22;6741;48.964;9.406;2022-11-30T03:45:52;5.30;99.90
13344;DHT22;6741;48.964;9.406;2022-11-30T03:48:19;5.30;99.90
13344;DHT22;6741;48.964;9.406;2022-11-30T03:50:46;5.30;99.90
13344;DHT22;6741;48.964;9.406;2022-11-30T03:53:16;5.30;99.90
13344;DHT22;6741;48.964;9.406;2022-11-30T03:55:44;5.40;99.90
13344;DHT22;6741;48.964;9.406;2022-11-30T03:58:11;5.40;99.90
13344;DHT22;6741;48.964;9.406;2022-11-30T04:00:38;5.40;99.90
13344;DHT22;6741;48.964;9.406;2022-11-30T04:03:05;5.40;99.90
13344;DHT22;6741;48.964;9.406;2022-11-30T04:05:32;5.40;99.90
13344;DHT22;6741;48.964;9.406;2022-11-30T04:07:59;5.40;99.90
13344;DHT22;6741;48.964;9.406;2022-11-30T04:10:27;5.50;99.90
13344;DHT22;6741;48.964;9.406;2022-11-30T04:12:54;5.50;99.90
13344;DHT22;6741;48.964;9.406;2022-11-30T04:15:21;5.50;99.90
13344;DHT22;6741;48.964;9.406;2022-11-30T04:17:48;5.50;99.90
13344;DHT22;6741;48.964;9.406;2022-11-30T04:20:15;5.50;99.90
13344;DHT22;6741;48.964;9.406;2022-11-30T04:22:42;5.50;99.90
13344;DHT22;6741;48.964;9.406;2022-11-30T04:25:09;5.60;99.90
13344;DHT22;6741;48.964;9.406;2022-11-30T04:27:37;5.60;99.90
13344;DHT22;6741;48.964;9.406;2022-11-30T04:30:06;5.60;99.90
13344;DHT22;6741;48.964;9.406;2022-11-30T04:32:33;5.60;99.90
13344;DHT22;6741;48.964;9.406;2022-11-30T04:34:59;5.60;99.90
13344;DHT22;6741;48.964;9.406;2022-11-30T04:37:26;5.50;99.90
13344;DHT22;6741;48.964;9.406;2022-11-30T04:39:53;5.50;99.90
13344;DHT22;6741;48.964;9.406;2022-11-30T04:42:20;5.40;99.90
13344;DHT22;6741;48.964;9.406;2022-11-30T04:44:49;5.40;99.90
13344;DHT22;6741;48.964;9.406;2022-11-30T04:47:15;5.50;99.90
13344;DHT22;6741;48.964;9.406;2022-11-30T04:49:42;5.50;99.90
13344;DHT22;6741;48.964;9.406;2022-11-30T04:52:09;5.40;99.90
13344;DHT22;6741;48.964;9.406;2022-11-30T04:54:36;5.40;99.90
13344;DHT22;6741;48.964;9.406;2022-11-30T04:57:03;5.40;99.90
13344;DHT22;6741;48.964;9.406;2022-11-30T04:59:31;5.50;99.90
13344;DHT22;6741;48.964;9.406;2022-11-30T05:01:59;5.50;99.90
13344;DHT22;6741;48.964;9.406;2022-11-30T05:04:26;5.50;99.90
13344;DHT22;6741;48.964;9.406;2022-11-30T05:06:53;5.60;99.90
13344;DHT22;6741;48.964;9.406;2022-11-30T05:09:20;5.60;99.90
13344;DHT22;6741;48.964;9.406;2022-11-30T05:11:47;5.50;99.90
13344;DHT22;6741;48.964;9.406;2022-11-30T05:14:14;5.60;99.90
13344;DHT22;6741;48.964;9.406;2022-11-30T05:16:41;5.50;99.90
13344;DHT22;6741;48.964;9.406;2022-11-30T05:19:09;5.50;99.90
13344;DHT22;6741;48.964;9.406;2022-11-30T05:21:38;5.50;99.90
13344;DHT22;6741;48.964;9.406;2022-11-30T05:24:06;5.50;99.90
13344;DHT22;6741;48.964;9.406;2022-11-30T05:26:34;5.50;99.90
13344;DHT22;6741;48.964;9.406;2022-11-30T05:29:01;5.50;99.90
13344;DHT22;6741;48.964;9.406;2022-11-30T05:31:29;5.50;99.90
13344;DHT22;6741;48.964;9.406;2022-11-30T05:33:56;5.50;99.90
13344;DHT22;6741;48.964;9.406;2022-11-30T05:36:27;5.50;99.90
13344;DHT22;6741;48.964;9.406;2022-11-30T05:38:54;5.50;99.90
13344;DHT22;6741;48.964;9.406;2022-11-30T05:41:21;5.50;99.90
13344;DHT22;6741;48.964;9.406;2022-11-30T05:43:48;5.50;99.90
13344;DHT22;6741;48.964;9.406;2022-11-30T05:46:15;5.60;99.90
13344;DHT22;6741;48.964;9.406;2022-11-30T05:48:42;5.60;99.90
13344;DHT22;6741;48.964;9.406;2022-11-30T05:51:12;5.60;99.90
13344;DHT22;6741;48.964;9.406;2022-11-30T05:53:41;5.50;99.90
13344;DHT22;6741;48.964;9.406;2022-11-30T05:56:10;5.50;99.90
13344;DHT22;6741;48.964;9.406;2022-11-30T05:58:38;5.50;99.90
13344;DHT22;6741;48.964;9.406;2022-11-30T06:01:05;5.40;99.90
13344;DHT22;6741;48.964;9.406;2022-11-30T06:03:34;5.40;99.90
13344;DHT22;6741;48.964;9.406;2022-11-30T06:06:01;5.40;99.90
13344;DHT22;6741;48.964;9.406;2022-11-30T06:08:28;5.40;99.90
13344;DHT22;6741;48.964;9.406;2022-11-30T06:11:00;5.40;99.90
13344;DHT22;6741;48.964;9.406;2022-11-30T06:13:27;5.40;99.90
13344;DHT22;6741;48.964;9.406;2022-11-30T06:15:57;5.40;99.90
13344;DHT22;6741;48.964;9.406;2022-11-30T06:18:24;5.40;99.90
13344;DHT22;6741;48.964;9.406;2022-11-30T06:20:51;5.40;99.90
13344;DHT22;6741;48.964;9.406;2022-11-30T06:23:18;5.40;99.90
13344;DHT22;6741;48.964;9.406;2022-11-30T06:25:45;5.40;99.90
13344;DHT22;6741;48.964;9.406;2022-11-30T06:28:14;5.40;99.90
13344;DHT22;6741;48.964;9.406;2022-11-30T06:30:40;5.40;99.90
13344;DHT22;6741;48.964;9.406;2022-11-30T06:33:07;5.40;99.90
13344;DHT22;6741;48.964;9.406;2022-11-30T06:35:34;5.40;99.90
13344;DHT22;6741;48.964;9.406;2022-11-30T06:38:01;5.40;99.90
13344;DHT22;6741;48.964;9.406;2022-11-30T06:40:28;5.30;99.90
13344;DHT22;6741;48.964;9.406;2022-11-30T06:42:55;5.30;99.90
13344;DHT22;6741;48.964;9.406;2022-11-30T06:45:23;5.30;99.90
13344;DHT22;6741;48.964;9.406;2022-11-30T06:47:53;5.40;99.90
13344;DHT22;6741;48.964;9.406;2022-11-30T06:50:21;5.40;99.90
13344;DHT22;6741;48.964;9.406;2022-11-30T06:52:48;5.40;99.90
13344;DHT22;6741;48.964;9.406;2022-11-30T06:55:15;5.40;99.90
13344;DHT22;6741;48.964;9.406;2022-11-30T06:57:42;5.40;99.90
13344;DHT22;6741;48.964;9.406;2022-11-30T07:00:10;5.40;99.90
13344;DHT22;6741;48.964;9.406;2022-11-30T07:02:40;5.40;99.90
13344;DHT22;6741;48.964;9.406;2022-11-30T07:05:07;5.50;99.90
13344;DHT22;6741;48.964;9.406;2022-11-30T07:07:34;5.40;99.90
13344;DHT22;6741;48.964;9.406;2022-11-30T07:10:01;5.50;99.90
13344;DHT22;6741;48.964;9.406;2022-11-30T07:12:28;5.50;99.90
13344;DHT22;6741;48.964;9.406;2022-11-30T07:14:55;5.50;99.90
13344;DHT22;6741;48.964;9.406;2022-11-30T07:17:22;5.50;99.90
13344;DHT22;6741;48.964;9.406;2022-11-30T07:19:50;5.40;99.90
13344;DHT22;6741;48.964;9.406;2022-11-30T07:22:17;5.40;99.90
13344;DHT22;6741;48.964;9.406;2022-11-30T07:24:44;5.40;99.90
13344;DHT22;6741;48.964;9.406;2022-11-30T07:27:43;5.40;99.90
13344;DHT22;6741;48.964;9.406;2022-11-30T07:30:11;5.40;99.90
13344;DHT22;6741;48.964;9.406;2022-11-30T07:32:38;5.50;99.90
13344;DHT22;6741;48.964;9.406;2022-11-30T07:35:07;5.50;99.90
13344;DHT22;6741;48.964;9.406;2022-11-30T07:37:34;5.60;99.90
13344;DHT22;6741;48.964;9.406;2022-11-30T07:40:01;5.60;99.90
13344;DHT22;6741;48.964;9.406;2022-11-30T07:42:29;5.70;99.90
13344;DHT22;6741;48.964;9.406;2022-11-30T07:44:56;5.80;99.90
13344;DHT22;6741;48.964;9.406;2022-11-30T07:47:23;5.90;99.90
13344;DHT22;6741;48.964;9.406;2022-11-30T07:49:50;6.00;99.90
13344;DHT22;6741;48.964;9.406;2022-11-30T07:52:18;6.00;99.90
13344;DHT22;6741;48.964;9.406;2022-11-30T07:54:45;6.10;99.90
13344;DHT22;6741;48.964;9.406;2022-11-30T07:57:12;6.20;99.90
13344;DHT22;6741;48.964;9.406;2022-11-30T07:59:39;6.20;99.90
13344;DHT22;6741;48.964;9.406;2022-11-30T08:02:06;6.20;99.90
13344;DHT22;6741;48.964;9.406;2022-11-30T08:04:33;6.30;99.90
13344;DHT22;6741;48.964;9.406;2022-11-30T08:06:59;6.30;99.90
13344;DHT22;6741;48.964;9.406;2022-11-30T08:09:28;6.30;99.90
13344;DHT22;6741;48.964;9.406;2022-11-30T08:11:55;6.20;99.90
13344;DHT22;6741;48.964;9.406;2022-11-30T08:14:21;6.20;99.90
13344;DHT22;6741;48.964;9.406;2022-11-30T08:16:48;6.20;99.90
13344;DHT22;6741;48.964;9.406;2022-11-30T08:19:16;6.30;99.90
13344;DHT22;6741;48.964;9.406;2022-11-30T08:21:43;6.20;99.90
13344;DHT22;6741;48.964;9.406;2022-11-30T08:24:11;6.30;99.90
13344;DHT22;6741;48.964;9.406;2022-11-30T08:26:40;6.30;99.90
13344;DHT22;6741;48.964;9.406;2022-11-30T08:29:08;6.30;99.90
13344;DHT22;6741;48.964;9.406;2022-11-30T08:31:36;6.30;99.90
13344;DHT22;6741;48.964;9.406;2022-11-30T08:34:04;6.50;99.90
13344;DHT22;6741;48.964;9.406;2022-11-30T08:36:32;6.50;99.90
13344;DHT22;6741;48.964;9.406;2022-11-30T08:39:01;6.50;99.90
13344;DHT22;6741;48.964;9.406;2022-11-30T08:41:29;6.50;99.90
13344;DHT22;6741;48.964;9.406;2022-11-30T08:43:58;6.50;99.90
13344;DHT22;6741;48.964;9.406;2022-11-30T08:46:25;6.50;99.90
13344;DHT22;6741;48.964;9.406;2022-11-30T08:48:53;6.50;99.90
13344;DHT22;6741;48.964;9.406;2022-11-30T08:51:20;6.40;99.90
13344;DHT22;6741;48.964;9.406;2022-11-30T08:53:47;6.40;99.90
13344;DHT22;6741;48.964;9.406;2022-11-30T08:56:16;6.50;99.90
13344;DHT22;6741;48.964;9.406;2022-11-30T08:58:44;6.40;99.90
13344;DHT22;6741;48.964;9.406;2022-11-30T09:01:14;6.50;99.90
13344;DHT22;6741;48.964;9.406;2022-11-30T09:03:43;6.50;99.90
13344;DHT22;6741;48.964;9.406;2022-11-30T09:06:11;6.50;99.90
13344;DHT22;6741;48.964;9.406;2022-11-30T09:08:40;6.50;99.90
13344;DHT22;6741;48.964;9.406;2022-11-30T09:11:08;6.50;99.90
13344;DHT22;6741;48.964;9.406;2022-11-30T09:13:35;6.60;99.90
13344;DHT22;6741;48.964;9.406;2022-11-30T09:16:02;6.60;99.90
13344;DHT22;6741;48.964;9.406;2022-11-30T09:18:31;6.60;99.90
13344;DHT22;6741;48.964;9.406;2022-11-30T09:20:59;6.60;99.90
13344;DHT22;6741;48.964;9.406;2022-11-30T09:23:27;6.60;99.90
13344;DHT22;6741;48.964;9.406;2022-11-30T09:25:55;6.70;99.90
13344;DHT22;6741;48.964;9.406;2022-11-30T09:28:23;6.60;99.90
13344;DHT22;6741;48.964;9.406;2022-11-30T09:30:50;6.60;99.90
13344;DHT22;6741;48.964;9.406;2022-11-30T09:33:17;6.60;99.90
13344;DHT22;6741;48.964;9.406;2022-11-30T09:35:53;6.60;99.90
13344;DHT22;6741;48.964;9.406;2022-11-30T09:38:21;6.50;99.90
13344;DHT22;6741;48.964;9.406;2022-11-30T09:40:53;6.50;99.90
13344;DHT22;6741;48.964;9.406;2022-11-30T09:43:29;6.50;99.90
13344;DHT22;6741;48.964;9.406;2022-11-30T09:46:02;6.60;99.90
13344;DHT22;6741;48.964;9.406;2022-11-30T09:48:47;6.60;99.90
13344;DHT22;6741;48.964;9.406;2022-11-30T09:51:22;6.60;99.90
13344;DHT22;6741;48.964;9.406;2022-11-30T09:53:55;6.70;99.90
13344;DHT22;6741;48.964;9.406;2022-11-30T09:56:29;6.80;99.90
13344;DHT22;6741;48.964;9.406;2022-11-30T09:59:03;6.90;99.90
13344;DHT22;6741;48.964;9.406;2022-11-30T10:01:32;6.90;99.90
13344;DHT22;6741;48.964;9.406;2022-11-30T10:03:59;7.00;99.90
13344;DHT22;6741;48.964;9.406;2022-11-30T10:06:35;7.00;99.90
13344;DHT22;6741;48.964;9.406;2022-11-30T10:09:24;7.00;99.90
13344;DHT22;6741;48.964;9.406;2022-11-30T10:11:58;6.90;99.90
13344;DHT22;6741;48.964;9.406;2022-11-30T10:14:51;7.00;99.90
13344;DHT22;6741;48.964;9.406;2022-11-30T10:17:29;7.20;99.90
13344;DHT22;6741;48.964;9.406;2022-11-30T10:20:25;7.20;99.90
13344;DHT22;6741;48.964;9.406;2022-11-30T10:23:08;7.10;99.90
13344;DHT22;6741;48.964;9.406;2022-11-30T10:25:45;7.20;99.90
13344;DHT22;6741;48.964;9.406;2022-11-30T10:28:17;7.20;99.90
13344;DHT22;6741;48.964;9.406;2022-11-30T10:30:48;7.20;99.90
13344;DHT22;6741;48.964;9.406;2022-11-30T10:33:16;7.20;99.90
13344;DHT22;6741;48.964;9.406;2022-11-30T10:35:47;7.30;99.90
13344;DHT22;6741;48.964;9.406;2022-11-30T10:38:20;7.40;99.90
13344;DHT22;6741;48.964;9.406;2022-11-30T10:40:52;7.30;99.90
13344;DHT22;6741;48.964;9.406;2022-11-30T10:43:25;7.20;99.90
13344;DHT22;6741;48.964;9.406;2022-11-30T10:45:53;7.30;99.90
13344;DHT22;6741;48.964;9.406;2022-11-30T10:48:26;7.40;99.90
13344;DHT22;6741;48.964;9.406;2022-11-30T10:50:54;7.40;99.90
13344;DHT22;6741;48.964;9.406;2022-11-30T10:53:22;7.50;99.90
13344;DHT22;6741;48.964;9.406;2022-11-30T10:55:56;7.50;99.90
13344;DHT22;6741;48.964;9.406;2022-11-30T10:58:28;7.50;99.90
13344;DHT22;6741;48.964;9.406;2022-11-30T11:01:02;7.40;99.90
13344;DHT22;6741;48.964;9.406;2022-11-30T11:03:30;7.30;99.90
13344;DHT22;6741;48.964;9.406;2022-11-30T11:06:08;7.20;99.90
13344;DHT22;6741;48.964;9.406;2022-11-30T11:08:38;7.40;99.90
13344;DHT22;6741;48.964;9.406;2022-11-30T11:11:28;7.50;99.90
13344;DHT22;6741;48.964;9.406;2022-11-30T11:14:15;7.50;99.90
13344;DHT22;6741;48.964;9.406;2022-11-30T11:16:50;7.60;99.90
13344;DHT22;6741;48.964;9.406;2022-11-30T11:19:24;7.50;99.90
13344;DHT22;6741;48.964;9.406;2022-11-30T11:21:51;7.40;99.90
13344;DHT22;6741;48.964;9.406;2022-11-30T11:24:25;7.30;99.90
13344;DHT22;6741;48.964;9.406;2022-11-30T11:26:53;7.20;99.90
13344;DHT22;6741;48.964;9.406;2022-11-30T11:29:26;7.20;99.90
13344;DHT22;6741;48.964;9.406;2022-11-30T11:32:23;7.20;99.90
13344;DHT22;6741;48.964;9.406;2022-11-30T11:34:50;7.30;99.90
13344;DHT22;6741;48.964;9.406;2022-11-30T11:37:23;7.30;99.90
13344;DHT22;6741;48.964;9.406;2022-11-30T11:40:03;7.20;99.90
13344;DHT22;6741;48.964;9.406;2022-11-30T11:42:34;7.20;99.90
13344;DHT22;6741;48.964;9.406;2022-11-30T11:45:04;7.20;99.90
13344;DHT22;6741;48.964;9.406;2022-11-30T11:47:38;7.10;99.90
13344;DHT22;6741;48.964;9.406;2022-11-30T11:50:20;7.10;99.90
13344;DHT22;6741;48.964;9.406;2022-11-30T11:52:49;7.00;99.90
13344;DHT22;6741;48.964;9.406;2022-11-30T11:55:18;7.00;99.90
13344;DHT22;6741;48.964;9.406;2022-11-30T11:57:50;7.00;99.90
13344;DHT22;6741;48.964;9.406;2022-11-30T12:00:20;7.00;99.90
13344;DHT22;6741;48.964;9.406;2022-11-30T12:02:52;7.10;99.90
13344;DHT22;6741;48.964;9.406;2022-11-30T12:05:26;7.10;99.90
13344;DHT22;6741;48.964;9.406;2022-11-30T12:08:05;7.10;99.90
13344;DHT22;6741;48.964;9.406;2022-11-30T12:10:37;7.20;99.90
13344;DHT22;6741;48.964;9.406;2022-11-30T12:13:13;7.10;99.90
13344;DHT22;6741;48.964;9.406;2022-11-30T12:15:52;7.10;99.90
13344;DHT22;6741;48.964;9.406;2022-11-30T12:18:28;7.20;99.90
13344;DHT22;6741;48.964;9.406;2022-11-30T12:21:01;7.10;99.90
13344;DHT22;6741;48.964;9.406;2022-11-30T12:23:46;7.10;99.90
13344;DHT22;6741;48.964;9.406;2022-11-30T12:26:25;7.10;99.90
13344;DHT22;6741;48.964;9.406;2022-11-30T12:29:19;7.10;99.90
13344;DHT22;6741;48.964;9.406;2022-11-30T12:32:02;7.20;99.90
13344;DHT22;6741;48.964;9.406;2022-11-30T12:34:45;7.20;99.90
13344;DHT22;6741;48.964;9.406;2022-11-30T12:37:24;7.30;99.90
13344;DHT22;6741;48.964;9.406;2022-11-30T12:40:01;7.30;99.90
13344;DHT22;6741;48.964;9.406;2022-11-30T12:42:36;7.20;99.90
13344;DHT22;6741;48.964;9.406;2022-11-30T12:45:12;7.30;99.90
13344;DHT22;6741;48.964;9.406;2022-11-30T12:47:49;7.30;99.90
13344;DHT22;6741;48.964;9.406;2022-11-30T12:50:29;7.20;99.90
13344;DHT22;6741;48.964;9.406;2022-11-30T12:53:07;7.20;99.90
13344;DHT22;6741;48.964;9.406;2022-11-30T12:55:40;7.20;99.90
13344;DHT22;6741;48.964;9.406;2022-11-30T12:58:17;7.20;99.90
13344;DHT22;6741;48.964;9.406;2022-11-30T13:00:57;7.10;99.90
13344;DHT22;6741;48.964;9.406;2022-11-30T13:03:45;7.10;99.90
13344;DHT22;6741;48.964;9.406;2022-11-30T13:06:16;7.00;99.90
13344;DHT22;6741;48.964;9.406;2022-11-30T13:08:55;7.00;99.90
13344;DHT22;6741;48.964;9.406;2022-11-30T13:11:28;7.00;99.90
13344;DHT22;6741;48.964;9.406;2022-11-30T13:13:58;7.00;99.90
13344;DHT22;6741;48.964;9.406;2022-11-30T13:16:28;7.10;99.90
13344;DHT22;6741;48.964;9.406;2022-11-30T13:19:00;7.10;99.90
13344;DHT22;6741;48.964;9.406;2022-11-30T13:21:32;7.10;99.90
13344;DHT22;6741;48.964;9.406;2022-11-30T13:24:07;7.10;99.90
13344;DHT22;6741;48.964;9.406;2022-11-30T13:26:39;7.10;99.90
13344;DHT22;6741;48.964;9.406;2022-11-30T13:29:42;7.10;99.90
13344;DHT22;6741;48.964;9.406;2022-11-30T13:32:13;7.10;99.90
13344;DHT22;6741;48.964;9.406;2022-11-30T13:34:41;7.10;99.90
13344;DHT22;6741;48.964;9.406;2022-11-30T13:37:10;7.00;99.90
13344;DHT22;6741;48.964;9.406;2022-11-30T13:39:46;7.00;99.90
13344;DHT22;6741;48.964;9.406;2022-11-30T13:42:31;6.90;99.90
13344;DHT22;6741;48.964;9.406;2022-11-30T13:45:16;7.00;99.90
13344;DHT22;6741;48.964;9.406;2022-11-30T13:47:49;7.00;99.90
13344;DHT22;6741;48.964;9.406;2022-11-30T13:50:23;6.90;99.90
13344;DHT22;6741;48.964;9.406;2022-11-30T13:53:17;6.80;99.90
13344;DHT22;6741;48.964;9.406;2022-11-30T13:56:01;6.80;99.90
13344;DHT22;6741;48.964;9.406;2022-11-30T13:58:29;6.80;99.90
13344;DHT22;6741;48.964;9.406;2022-11-30T14:01:29;6.80;99.90
13344;DHT22;6741;48.964;9.406;2022-11-30T14:04:25;6.80;99.90
13344;DHT22;6741;48.964;9.406;2022-11-30T14:06:56;6.80;99.90
13344;DHT22;6741;48.964;9.406;2022-11-30T14:09:55;6.90;99.90
13344;DHT22;6741;48.964;9.406;2022-11-30T14:12:46;6.80;99.90
13344;DHT22;6741;48.964;9.406;2022-11-30T14:18:21;6.80;99.90
13344;DHT22;6741;48.964;9.406;2022-11-30T14:20:52;6.80;99.90
13344;DHT22;6741;48.964;9.406;2022-11-30T14:23:23;6.80;99.90
13344;DHT22;6741;48.964;9.406;2022-11-30T14:25:53;6.80;99.90
13344;DHT22;6741;48.964;9.406;2022-11-30T14:28:24;6.70;99.90
13344;DHT22;6741;48.964;9.406;2022-11-30T14:30:54;6.70;99.90
13344;DHT22;6741;48.964;9.406;2022-11-30T14:33:38;6.70;99.90
13344;DHT22;6741;48.964;9.406;2022-11-30T14:36:06;6.60;99.90
13344;DHT22;6741;48.964;9.406;2022-11-30T14:38:38;6.60;99.90
13344;DHT22;6741;48.964;9.406;2022-11-30T14:41:15;6.60;99.90
13344;DHT22;6741;48.964;9.406;2022-11-30T14:44:00;6.60;99.90
13344;DHT22;6741;48.964;9.406;2022-11-30T14:46:28;6.60;99.90
13344;DHT22;6741;48.964;9.406;2022-11-30T14:49:21;6.60;99.90
13344;DHT22;6741;48.964;9.406;2022-11-30T14:51:51;6.60;99.90
13344;DHT22;6741;48.964;9.406;2022-11-30T14:54:29;6.60;99.90
13344;DHT22;6741;48.964;9.406;2022-11-30T14:57:14;6.60;99.90
13344;DHT22;6741;48.964;9.406;2022-11-30T14:59:49;6.50;99.90
13344;DHT22;6741;48.964;9.406;2022-11-30T15:02:21;6.60;99.90
13344;DHT22;6741;48.964;9.406;2022-11-30T15:04:52;6.50;99.90
13344;DHT22;6741;48.964;9.406;2022-11-30T15:07:21;6.50;99.90
13344;DHT22;6741;48.964;9.406;2022-11-30T15:09:51;6.50;99.90
13344;DHT22;6741;48.964;9.406;2022-11-30T15:12:21;6.40;99.90
13344;DHT22;6741;48.964;9.406;2022-11-30T15:15:12;6.40;99.90
13344;DHT22;6741;48.964;9.406;2022-11-30T15:17:53;6.40;99.90
13344;DHT22;6741;48.964;9.406;2022-11-30T15:20:28;6.40;99.90
13344;DHT22;6741;48.964;9.406;2022-11-30T15:22:59;6.30;99.90
13344;DHT22;6741;48.964;9.406;2022-11-30T15:25:32;6.30;99.90
13344;DHT22;6741;48.964;9.406;2022-11-30T15:28:00;6.30;99.90
13344;DHT22;6741;48.964;9.406;2022-11-30T15:30:30;6.30;99.90
13344;DHT22;6741;48.964;9.406;2022-11-30T15:32:58;6.30;99.90
13344;DHT22;6741;48.964;9.406;2022-11-30T15:35:27;6.30;99.90
13344;DHT22;6741;48.964;9.406;2022-11-30T15:37:53;6.30;99.90
13344;DHT22;6741;48.964;9.406;2022-11-30T15:40:28;6.30;99.90
13344;DHT22;6741;48.964;9.406;2022-11-30T15:42:56;6.20;99.90
13344;DHT22;6741;48.964;9.406;2022-11-30T15:45:25;6.30;99.90
13344;DHT22;6741;48.964;9.406;2022-11-30T15:47:53;6.30;99.90
13344;DHT22;6741;48.964;9.406;2022-11-30T15:50:35;6.20;99.90
13344;DHT22;6741;48.964;9.406;2022-11-30T15:55:46;6.10;99.90
13344;DHT22;6741;48.964;9.406;2022-11-30T15:58:28;6.10;99.90
13344;DHT22;6741;48.964;9.406;2022-11-30T16:01:14;6.10;99.90
13344;DHT22;6741;48.964;9.406;2022-11-30T16:04:02;6.10;99.90
13344;DHT22;6741;48.964;9.406;2022-11-30T16:06:33;6.10;99.90
13344;DHT22;6741;48.964;9.406;2022-11-30T16:09:04;6.10;99.90
13344;DHT22;6741;48.964;9.406;2022-11-30T16:11:35;6.00;99.90
13344;DHT22;6741;48.964;9.406;2022-11-30T16:14:02;6.00;99.90
13344;DHT22;6741;48.964;9.406;2022-11-30T16:16:31;6.00;99.90
13344;DHT22;6741;48.964;9.406;2022-11-30T16:18:58;6.00;99.90
13344;DHT22;6741;48.964;9.406;2022-11-30T16:21:25;6.00;99.90
13344;DHT22;6741;48.964;9.406;2022-11-30T16:23:54;6.00;99.90
13344;DHT22;6741;48.964;9.406;2022-11-30T16:26:20;6.00;99.90
13344;DHT22;6741;48.964;9.406;2022-11-30T16:28:47;5.90;99.90
13344;DHT22;6741;48.964;9.406;2022-11-30T16:31:18;5.90;99.90
13344;DHT22;6741;48.964;9.406;2022-11-30T16:33:47;5.90;99.90
13344;DHT22;6741;48.964;9.406;2022-11-30T16:36:17;5.90;99.90